createdAt,value
2018-02-14T00:00:50.203Z,1002.76
2018-02-14T00:01:50.251Z,1002.80
2018-02-14T00:02:50.301Z,1002.79
2018-02-14T00:03:50.351Z,1002.76
2018-02-14T00:04:50.401Z,1002.82
2018-02-14T00:05:50.454Z,1002.80
2018-02-14T00:06:50.500Z,1002.86
2018-02-14T00:07:50.550Z,1002.84
2018-02-14T00:08:50.602Z,1002.83
2018-02-14T00:09:50.651Z,1002.80
2018-02-14T00:10:50.705Z,1002.86
2018-02-14T00:11:50.752Z,1002.89
2018-02-14T00:12:50.801Z,1002.92
2018-02-14T00:13:50.851Z,1002.92
2018-02-14T00:14:50.901Z,1002.92
2018-02-14T00:15:50.952Z,1002.92
2018-02-14T00:16:51.002Z,1002.93
2018-02-14T00:17:51.052Z,1002.91
2018-02-14T00:18:51.101Z,1002.96
2018-02-14T00:19:51.152Z,1002.90
2018-02-14T00:20:51.202Z,1002.97
2018-02-14T00:21:51.253Z,1002.95
2018-02-14T00:22:51.303Z,1003.01
2018-02-14T00:23:51.352Z,1003.00
2018-02-14T00:24:51.403Z,1003.08
2018-02-14T00:25:51.452Z,1003.03
2018-02-14T00:26:51.503Z,1003.07
2018-02-14T00:27:51.553Z,1003.10
2018-02-14T00:28:51.605Z,1003.03
2018-02-14T00:29:51.652Z,1003.04
2018-02-14T00:30:51.702Z,1003.07
2018-02-14T00:31:51.753Z,1003.01
2018-02-14T00:32:51.803Z,1003.03
2018-02-14T00:33:51.854Z,1003.01
2018-02-14T00:34:51.901Z,1003.06
2018-02-14T00:35:51.951Z,1003.03
2018-02-14T00:36:52.003Z,1003.07
2018-02-14T00:37:52.051Z,1003.05
2018-02-14T00:38:52.102Z,1003.07
2018-02-14T00:39:52.154Z,1003.05
2018-02-14T00:40:52.206Z,1003.03
2018-02-14T00:41:52.252Z,1002.99
2018-02-14T00:42:52.302Z,1003.06
2018-02-14T00:43:52.351Z,1003.00
2018-02-14T00:44:52.400Z,1002.99
2018-02-14T00:45:52.503Z,1003.04
2018-02-14T00:46:52.500Z,1003.03
2018-02-14T00:47:52.551Z,1003.06
2018-02-14T00:48:52.601Z,1003.08
2018-02-14T00:49:52.651Z,1003.03
2018-02-14T00:50:52.699Z,1003.02
2018-02-14T00:51:52.749Z,1003.00
2018-02-14T00:52:52.798Z,1003.00
2018-02-14T00:53:52.852Z,1003.00
2018-02-14T00:54:52.899Z,1003.03
2018-02-14T00:55:52.952Z,1003.03
2018-02-14T00:56:53.249Z,1003.06
2018-02-14T00:57:53.048Z,1003.02
2018-02-14T00:58:53.098Z,1003.06
2018-02-14T00:59:53.148Z,1003.10
2018-02-14T01:00:53.197Z,1003.11
2018-02-14T01:01:53.247Z,1003.10
2018-02-14T01:02:53.546Z,1003.13
2018-02-14T01:03:53.423Z,1003.16
2018-02-14T01:04:53.397Z,1003.14
2018-02-14T01:05:53.446Z,1003.11
2018-02-14T01:06:53.496Z,1003.16
2018-02-14T01:07:53.545Z,1003.27
2018-02-14T01:08:53.596Z,1003.23
2018-02-14T01:09:53.644Z,1003.24
2018-02-14T01:10:53.694Z,1003.22
2018-02-14T01:11:53.744Z,1003.22
2018-02-14T01:12:53.793Z,1003.27
2018-02-14T01:13:53.843Z,1003.24
2018-02-14T01:14:53.893Z,1003.26
2018-02-14T01:15:53.943Z,1003.24
2018-02-14T01:16:53.991Z,1003.31
2018-02-14T01:17:54.045Z,1003.33
2018-02-14T01:18:54.091Z,1003.32
2018-02-14T01:19:54.152Z,1003.33
2018-02-14T01:20:54.341Z,1003.34
2018-02-14T01:21:54.244Z,1003.36
2018-02-14T01:22:54.290Z,1003.33
2018-02-14T01:23:54.340Z,1003.37
2018-02-14T01:24:54.389Z,1003.38
2018-02-14T01:25:54.437Z,1003.39
2018-02-14T01:26:54.488Z,1003.38
2018-02-14T01:27:54.537Z,1003.40
2018-02-14T01:28:54.586Z,1003.43
2018-02-14T01:29:54.637Z,1003.43
2018-02-14T01:30:54.686Z,1003.50
2018-02-14T01:31:54.987Z,1003.50
2018-02-14T01:32:54.784Z,1003.53
2018-02-14T01:33:54.834Z,1003.45
2018-02-14T01:34:54.883Z,1003.43
2018-02-14T01:35:54.934Z,1003.44
2018-02-14T01:36:54.983Z,1003.52
2018-02-14T01:37:55.031Z,1003.51
2018-02-14T01:38:55.081Z,1003.50
2018-02-14T01:39:55.130Z,1003.48
2018-02-14T01:40:55.180Z,1003.51
2018-02-14T01:41:55.231Z,1003.53
2018-02-14T01:42:55.280Z,1003.49
2018-02-14T01:43:55.329Z,1003.53
2018-02-14T01:44:55.379Z,1003.53
2018-02-14T01:45:55.428Z,1003.52
2018-02-14T01:46:55.479Z,1003.56
2018-02-14T01:47:56.104Z,1003.65
2018-02-14T01:48:56.258Z,1003.57
2018-02-14T01:49:56.802Z,1003.55
2018-02-14T01:50:56.384Z,1003.64
2018-02-14T01:51:56.330Z,1003.62
2018-02-14T01:52:56.243Z,1003.63
2018-02-14T01:53:56.283Z,1003.61
2018-02-14T01:54:56.424Z,1003.60
2018-02-14T01:55:55.921Z,1003.49
2018-02-14T01:56:55.971Z,1003.57
2018-02-14T01:57:56.020Z,1003.63
2018-02-14T01:58:56.069Z,1003.64
2018-02-14T01:59:56.118Z,1003.64
2018-02-14T02:00:56.168Z,1003.69
2018-02-14T02:01:56.218Z,1003.72
2018-02-14T02:02:56.267Z,1003.69
2018-02-14T02:03:56.317Z,1003.69
2018-02-14T02:04:56.367Z,1003.69
2018-02-14T02:05:56.415Z,1003.64
2018-02-14T02:06:56.465Z,1003.64
2018-02-14T02:07:56.514Z,1003.64
2018-02-14T02:08:56.564Z,1003.66
2018-02-14T02:09:56.613Z,1003.64
2018-02-14T02:10:56.661Z,1003.63
2018-02-14T02:11:56.912Z,1003.63
2018-02-14T02:12:56.762Z,1003.65
2018-02-14T02:13:56.809Z,1003.66
2018-02-14T02:14:56.859Z,1003.66
2018-02-14T02:15:56.908Z,1003.65
2018-02-14T02:16:56.957Z,1003.63
2018-02-14T02:17:57.005Z,1003.65
2018-02-14T02:18:57.055Z,1003.68
2018-02-14T02:19:57.106Z,1003.66
2018-02-14T02:20:57.155Z,1003.68
2018-02-14T02:21:57.202Z,1003.74
2018-02-14T02:22:57.252Z,1003.79
2018-02-14T02:23:57.302Z,1003.77
2018-02-14T02:24:57.352Z,1003.77
2018-02-14T02:25:57.399Z,1003.79
2018-02-14T02:26:57.450Z,1003.76
2018-02-14T02:27:57.498Z,1003.79
2018-02-14T02:28:57.798Z,1003.79
2018-02-14T02:29:57.597Z,1003.80
2018-02-14T02:30:57.645Z,1003.78
2018-02-14T02:31:57.728Z,1003.81
2018-02-14T02:32:57.781Z,1003.80
2018-02-14T02:33:57.826Z,1003.79
2018-02-14T02:34:58.179Z,1003.82
2018-02-14T02:35:57.929Z,1003.82
2018-02-14T02:36:57.975Z,1003.79
2018-02-14T02:37:58.020Z,1003.81
2018-02-14T02:38:58.072Z,1003.77
2018-02-14T02:39:58.088Z,1003.79
2018-02-14T02:40:58.370Z,1003.89
2018-02-14T02:41:58.221Z,1003.84
2018-02-14T02:42:58.266Z,1003.91
2018-02-14T02:43:58.318Z,1003.88
2018-02-14T02:44:58.365Z,1003.88
2018-02-14T02:45:58.415Z,1003.89
2018-02-14T02:46:58.469Z,1003.90
2018-02-14T02:47:58.516Z,1003.92
2018-02-14T02:48:58.535Z,1003.86
2018-02-14T02:49:58.578Z,1003.90
2018-02-14T02:50:58.627Z,1003.87
2018-02-14T02:51:58.684Z,1003.85
2018-02-14T02:52:58.724Z,1003.88
2018-02-14T02:53:58.775Z,1003.91
2018-02-14T02:54:58.822Z,1003.94
2018-02-14T02:55:58.871Z,1003.88
2018-02-14T02:56:58.972Z,1003.91
2018-02-14T02:57:58.969Z,1003.95
2018-02-14T02:58:59.020Z,1003.91
2018-02-14T02:59:59.067Z,1003.89
2018-02-14T03:00:59.116Z,1003.92
2018-02-14T03:01:59.164Z,1003.89
2018-02-14T03:02:59.213Z,1003.98
2018-02-14T03:03:59.264Z,1003.96
2018-02-14T03:04:59.312Z,1003.98
2018-02-14T03:05:59.360Z,1004.02
2018-02-14T03:06:59.411Z,1003.94
2018-02-14T03:07:59.458Z,1003.94
2018-02-14T03:08:59.508Z,1003.95
2018-02-14T03:09:59.557Z,1003.97
2018-02-14T03:10:59.609Z,1003.94
2018-02-14T03:11:59.655Z,1003.95
2018-02-14T03:12:59.705Z,1004.01
2018-02-14T03:13:59.753Z,1004.01
2018-02-14T03:14:59.803Z,1004.04
2018-02-14T03:15:59.853Z,1004.04
2018-02-14T03:16:59.901Z,1004.11
2018-02-14T03:17:59.949Z,1004.11
2018-02-14T03:18:59.998Z,1004.15
2018-02-14T03:20:00.067Z,1004.16
2018-02-14T03:21:00.096Z,1004.08
2018-02-14T03:22:00.146Z,1004.13
2018-02-14T03:23:00.193Z,1004.06
2018-02-14T03:24:00.244Z,1004.02
2018-02-14T03:25:00.292Z,1004.03
2018-02-14T03:26:00.341Z,1004.03
2018-02-14T03:27:00.390Z,1004.09
2018-02-14T03:28:00.440Z,1004.11
2018-02-14T03:29:00.487Z,1004.11
2018-02-14T03:30:00.536Z,1004.12
2018-02-14T03:31:00.585Z,1004.12
2018-02-14T03:32:00.632Z,1004.15
2018-02-14T03:33:00.683Z,1004.17
2018-02-14T03:34:00.731Z,1004.23
2018-02-14T03:35:00.779Z,1004.22
2018-02-14T03:36:00.828Z,1004.28
2018-02-14T03:37:00.878Z,1004.26
2018-02-14T03:38:00.925Z,1004.31
2018-02-14T03:39:00.975Z,1004.37
2018-02-14T03:40:01.025Z,1004.35
2018-02-14T03:41:01.071Z,1004.33
2018-02-14T03:42:01.119Z,1004.32
2018-02-14T03:43:01.319Z,1004.31
2018-02-14T03:44:01.218Z,1004.31
2018-02-14T03:45:01.267Z,1004.27
2018-02-14T03:46:01.315Z,1004.29
2018-02-14T03:47:01.364Z,1004.26
2018-02-14T03:48:01.413Z,1004.29
2018-02-14T03:49:01.461Z,1004.24
2018-02-14T03:50:01.508Z,1004.26
2018-02-14T03:51:01.560Z,1004.27
2018-02-14T03:52:01.607Z,1004.31
2018-02-14T03:53:01.655Z,1004.31
2018-02-14T03:54:01.753Z,1004.27
2018-02-14T03:55:01.752Z,1004.30
2018-02-14T03:56:01.834Z,1004.27
2018-02-14T03:57:01.849Z,1004.33
2018-02-14T03:58:01.901Z,1004.32
2018-02-14T03:59:01.946Z,1004.42
2018-02-14T04:00:01.995Z,1004.36
2018-02-14T04:01:02.044Z,1004.39
2018-02-14T04:02:02.092Z,1004.36
2018-02-14T04:03:02.140Z,1004.41
2018-02-14T04:04:02.189Z,1004.43
2018-02-14T04:05:02.237Z,1004.42
2018-02-14T04:06:02.286Z,1004.45
2018-02-14T04:07:02.335Z,1004.46
2018-02-14T04:08:02.383Z,1004.43
2018-02-14T04:09:02.432Z,1004.45
2018-02-14T04:10:02.480Z,1004.42
2018-02-14T04:11:02.528Z,1004.47
2018-02-14T04:12:02.576Z,1004.42
2018-02-14T04:13:02.626Z,1004.49
2018-02-14T04:14:02.674Z,1004.45
2018-02-14T04:15:02.723Z,1004.52
2018-02-14T04:16:02.774Z,1004.57
2018-02-14T04:17:02.820Z,1004.53
2018-02-14T04:18:02.866Z,1004.56
2018-02-14T04:19:02.915Z,1004.57
2018-02-14T04:20:02.964Z,1004.59
2018-02-14T04:21:03.012Z,1004.61
2018-02-14T04:22:03.061Z,1004.60
2018-02-14T04:23:03.259Z,1004.67
2018-02-14T04:24:03.157Z,1004.65
2018-02-14T04:25:03.206Z,1004.67
2018-02-14T04:26:03.256Z,1004.68
2018-02-14T04:27:03.302Z,1004.73
2018-02-14T04:28:03.350Z,1004.70
2018-02-14T04:29:03.399Z,1004.74
2018-02-14T04:30:03.449Z,1004.77
2018-02-14T04:31:03.495Z,1004.76
2018-02-14T04:32:03.543Z,1004.76
2018-02-14T04:33:03.593Z,1004.78
2018-02-14T04:34:03.641Z,1004.75
2018-02-14T04:35:03.688Z,1004.78
2018-02-14T04:36:03.738Z,1004.79
2018-02-14T04:37:03.787Z,1004.81
2018-02-14T04:38:03.833Z,1004.85
2018-02-14T04:39:03.883Z,1004.91
2018-02-14T04:40:03.931Z,1004.82
2018-02-14T04:41:03.980Z,1004.81
2018-02-14T04:42:04.027Z,1004.85
2018-02-14T04:43:04.074Z,1004.87
2018-02-14T04:44:04.124Z,1004.83
2018-02-14T04:45:04.421Z,1004.91
2018-02-14T04:46:04.220Z,1004.95
2018-02-14T04:47:04.268Z,1005.01
2018-02-14T04:48:04.317Z,1005.01
2018-02-14T04:49:04.365Z,1005.05
2018-02-14T04:50:04.414Z,1005.09
2018-02-14T04:51:04.462Z,1005.11
2018-02-14T04:52:04.539Z,1005.11
2018-02-14T04:53:04.614Z,1005.12
2018-02-14T04:54:04.658Z,1005.09
2018-02-14T04:55:04.695Z,1005.15
2018-02-14T04:56:04.726Z,1005.11
2018-02-14T04:57:04.950Z,1005.09
2018-02-14T04:58:04.833Z,1005.11
2018-02-14T04:59:04.866Z,1005.15
2018-02-14T05:00:04.895Z,1005.10
2018-02-14T05:01:05.003Z,1005.09
2018-02-14T05:02:05.043Z,1005.08
2018-02-14T05:03:05.142Z,1005.11
2018-02-14T05:04:05.506Z,1005.13
2018-02-14T05:05:05.137Z,1005.12
2018-02-14T05:06:05.203Z,1005.18
2018-02-14T05:07:05.231Z,1005.18
2018-02-14T05:08:05.280Z,1005.19
2018-02-14T05:09:05.332Z,1005.26
2018-02-14T05:10:05.407Z,1005.19
2018-02-14T05:11:05.428Z,1005.18
2018-02-14T05:12:05.474Z,1005.25
2018-02-14T05:13:05.571Z,1005.17
2018-02-14T05:14:05.813Z,1005.24
2018-02-14T05:15:05.623Z,1005.25
2018-02-14T05:16:06.006Z,1005.29
2018-02-14T05:17:05.751Z,1005.27
2018-02-14T05:18:05.761Z,1005.30
2018-02-14T05:19:05.809Z,1005.36
2018-02-14T05:20:05.858Z,1005.41
2018-02-14T05:21:07.331Z,1005.39
2018-02-14T05:22:05.954Z,1005.40
2018-02-14T05:23:06.004Z,1005.38
2018-02-14T05:24:06.052Z,1005.38
2018-02-14T05:25:06.250Z,1005.44
2018-02-14T05:26:06.148Z,1005.39
2018-02-14T05:27:06.194Z,1005.45
2018-02-14T05:28:06.245Z,1005.56
2018-02-14T05:29:06.293Z,1005.50
2018-02-14T05:30:06.384Z,1005.50
2018-02-14T05:31:06.389Z,1005.51
2018-02-14T05:32:06.437Z,1005.55
2018-02-14T05:33:06.485Z,1005.59
2018-02-14T05:34:06.532Z,1005.61
2018-02-14T05:35:06.580Z,1005.64
2018-02-14T05:36:06.629Z,1005.59
2018-02-14T05:37:06.677Z,1005.62
2018-02-14T05:38:06.724Z,1005.66
2018-02-14T05:39:06.773Z,1005.63
2018-02-14T05:40:06.825Z,1005.67
2018-02-14T05:41:06.871Z,1005.68
2018-02-14T05:42:06.918Z,1005.64
2018-02-14T05:43:07.166Z,1005.73
2018-02-14T05:44:07.013Z,1005.70
2018-02-14T05:45:07.062Z,1005.72
2018-02-14T05:46:07.110Z,1005.67
2018-02-14T05:47:07.158Z,1005.71
2018-02-14T05:48:07.205Z,1005.66
2018-02-14T05:49:07.253Z,1005.71
2018-02-14T05:50:07.302Z,1005.67
2018-02-14T05:51:07.395Z,1005.67
2018-02-14T05:52:07.435Z,1005.68
2018-02-14T05:53:07.479Z,1005.69
2018-02-14T05:54:07.726Z,1005.68
2018-02-14T05:55:07.573Z,1005.71
2018-02-14T05:56:07.627Z,1005.75
2018-02-14T05:57:07.662Z,1005.76
2018-02-14T05:58:07.717Z,1005.78
2018-02-14T05:59:07.734Z,1005.74
2018-02-14T06:00:07.781Z,1005.79
2018-02-14T06:01:07.861Z,1005.79
2018-02-14T06:02:07.915Z,1005.76
2018-02-14T06:03:08.299Z,1005.80
2018-02-14T06:04:08.015Z,1005.79
2018-02-14T06:05:08.336Z,1005.81
2018-02-14T06:06:08.101Z,1005.79
2018-02-14T06:07:08.128Z,1005.81
2018-02-14T06:08:08.198Z,1005.81
2018-02-14T06:09:08.242Z,1005.79
2018-02-14T06:10:08.642Z,1005.89
2018-02-14T06:11:08.749Z,1005.84
2018-02-14T06:12:08.376Z,1005.90
2018-02-14T06:13:08.708Z,1005.86
2018-02-14T06:14:08.490Z,1005.89
2018-02-14T06:15:08.501Z,1005.85
2018-02-14T06:16:08.551Z,1005.88
2018-02-14T06:17:08.798Z,1005.87
2018-02-14T06:18:08.645Z,1005.87
2018-02-14T06:19:08.692Z,1005.83
2018-02-14T06:20:08.741Z,1005.85
2018-02-14T06:21:08.788Z,1005.97
2018-02-14T06:22:08.835Z,1005.94
2018-02-14T06:23:08.883Z,1005.96
2018-02-14T06:24:08.932Z,1005.99
2018-02-14T06:25:08.983Z,1006.02
2018-02-14T06:26:09.026Z,1006.04
2018-02-14T06:27:09.075Z,1005.99
2018-02-14T06:28:09.126Z,1005.98
2018-02-14T06:29:09.175Z,1005.99
2018-02-14T06:30:09.218Z,1006.02
2018-02-14T06:31:09.266Z,1006.06
2018-02-14T06:32:09.315Z,1006.09
2018-02-14T06:33:09.363Z,1006.05
2018-02-14T06:34:09.660Z,1006.11
2018-02-14T06:35:09.458Z,1006.14
2018-02-14T06:36:09.507Z,1006.11
2018-02-14T06:37:09.553Z,1006.16
2018-02-14T06:38:09.601Z,1006.19
2018-02-14T06:39:09.654Z,1006.25
2018-02-14T06:40:09.696Z,1006.20
2018-02-14T06:41:09.745Z,1006.20
2018-02-14T06:42:09.792Z,1006.16
2018-02-14T06:43:09.839Z,1006.20
2018-02-14T06:44:09.888Z,1006.18
2018-02-14T06:45:09.935Z,1006.15
2018-02-14T06:46:10.182Z,1006.23
2018-02-14T06:47:10.030Z,1006.22
2018-02-14T06:48:10.078Z,1006.21
2018-02-14T06:49:10.125Z,1006.21
2018-02-14T06:50:10.176Z,1006.24
2018-02-14T06:51:10.220Z,1006.26
2018-02-14T06:52:10.268Z,1006.28
2018-02-14T06:53:10.317Z,1006.31
2018-02-14T06:54:10.362Z,1006.34
2018-02-14T06:55:10.410Z,1006.27
2018-02-14T06:56:10.459Z,1006.34
2018-02-14T06:57:10.507Z,1006.34
2018-02-14T06:58:10.553Z,1006.33
2018-02-14T06:59:10.601Z,1006.35
2018-02-14T07:00:10.649Z,1006.40
2018-02-14T07:01:10.697Z,1006.42
2018-02-14T07:02:10.743Z,1006.41
2018-02-14T07:03:10.992Z,1006.47
2018-02-14T07:04:10.839Z,1006.47
2018-02-14T07:05:10.887Z,1006.46
2018-02-14T07:06:10.933Z,1006.47
2018-02-14T07:07:10.981Z,1006.47
2018-02-14T07:08:11.031Z,1006.47
2018-02-14T07:09:11.079Z,1006.45
2018-02-14T07:10:11.152Z,1006.54
2018-02-14T07:11:11.172Z,1006.46
2018-02-14T07:12:11.220Z,1006.47
2018-02-14T07:13:11.269Z,1006.42
2018-02-14T07:14:11.316Z,1006.48
2018-02-14T07:15:11.366Z,1006.50
2018-02-14T07:16:11.423Z,1006.48
2018-02-14T07:17:11.462Z,1006.50
2018-02-14T07:18:11.543Z,1006.46
2018-02-14T07:19:11.587Z,1006.50
2018-02-14T07:20:11.936Z,1006.41
2018-02-14T07:21:11.724Z,1006.49
2018-02-14T07:22:11.698Z,1006.52
2018-02-14T07:23:11.778Z,1006.56
2018-02-14T07:24:11.811Z,1006.62
2018-02-14T07:25:11.842Z,1006.59
2018-02-14T07:26:12.133Z,1006.63
2018-02-14T07:27:11.936Z,1006.70
2018-02-14T07:28:11.984Z,1006.68
2018-02-14T07:29:12.036Z,1006.66
2018-02-14T07:30:12.080Z,1006.66
2018-02-14T07:31:12.128Z,1006.67
2018-02-14T07:32:12.176Z,1006.67
2018-02-14T07:33:12.224Z,1006.68
2018-02-14T07:34:12.272Z,1006.68
2018-02-14T07:35:12.319Z,1006.66
2018-02-14T07:36:12.393Z,1006.65
2018-02-14T07:37:12.416Z,1006.68
2018-02-14T07:38:12.466Z,1006.72
2018-02-14T07:39:12.512Z,1006.73
2018-02-14T07:40:12.561Z,1006.78
2018-02-14T07:41:12.607Z,1006.80
2018-02-14T07:42:12.805Z,1006.81
2018-02-14T07:43:12.702Z,1006.79
2018-02-14T07:44:12.751Z,1006.83
2018-02-14T07:45:12.821Z,1006.79
2018-02-14T07:46:12.849Z,1006.82
2018-02-14T07:47:12.894Z,1006.81
2018-02-14T07:48:12.944Z,1006.81
2018-02-14T07:49:12.991Z,1006.81
2018-02-14T07:50:13.514Z,1006.77
2018-02-14T07:51:13.088Z,1006.77
2018-02-14T07:52:13.136Z,1006.78
2018-02-14T07:53:13.184Z,1006.78
2018-02-14T07:54:13.232Z,1006.83
2018-02-14T07:55:13.280Z,1006.80
2018-02-14T07:56:13.329Z,1006.79
2018-02-14T07:57:13.376Z,1006.76
2018-02-14T07:58:13.735Z,1006.81
2018-02-14T07:59:13.674Z,1006.83
2018-02-14T08:00:13.524Z,1006.85
2018-02-14T08:01:13.569Z,1006.87
2018-02-14T08:02:13.618Z,1006.91
2018-02-14T08:03:13.666Z,1006.94
2018-02-14T08:04:13.719Z,1006.94
2018-02-14T08:05:13.813Z,1006.95
2018-02-14T08:06:13.811Z,1007.03
2018-02-14T08:07:13.860Z,1007.03
2018-02-14T08:08:13.910Z,1007.05
2018-02-14T08:09:13.964Z,1007.07
2018-02-14T08:10:14.256Z,1007.08
2018-02-14T08:11:14.178Z,1007.11
2018-02-14T08:12:14.105Z,1007.14
2018-02-14T08:13:14.150Z,1007.15
2018-02-14T08:14:14.200Z,1007.15
2018-02-14T08:15:14.251Z,1007.14
2018-02-14T08:16:15.000Z,1007.17
2018-02-14T08:17:14.345Z,1007.18
2018-02-14T08:18:14.426Z,1007.23
2018-02-14T08:19:14.475Z,1007.20
2018-02-14T08:20:14.527Z,1007.25
2018-02-14T08:21:14.574Z,1007.23
2018-02-14T08:22:14.922Z,1007.32
2018-02-14T08:23:15.022Z,1007.28
2018-02-14T08:24:14.723Z,1007.33
2018-02-14T08:25:14.762Z,1007.32
2018-02-14T08:26:14.818Z,1007.32
2018-02-14T08:27:14.849Z,1007.29
2018-02-14T08:28:14.913Z,1007.31
2018-02-14T08:29:14.936Z,1007.28
2018-02-14T08:30:15.017Z,1007.25
2018-02-14T08:31:15.030Z,1007.25
2018-02-14T08:32:15.079Z,1007.25
2018-02-14T08:33:15.181Z,1007.23
2018-02-14T08:34:15.226Z,1007.25
2018-02-14T08:35:15.227Z,1007.30
2018-02-14T08:36:15.293Z,1007.27
2018-02-14T08:37:15.330Z,1007.27
2018-02-14T08:38:15.374Z,1007.25
2018-02-14T08:39:15.724Z,1007.26
2018-02-14T08:40:15.474Z,1007.24
2018-02-14T08:41:15.524Z,1007.25
2018-02-14T08:42:15.573Z,1007.26
2018-02-14T08:43:15.622Z,1007.25
2018-02-14T08:44:15.672Z,1007.30
2018-02-14T08:45:15.773Z,1007.24
2018-02-14T08:46:15.772Z,1007.30
2018-02-14T08:47:15.823Z,1007.30
2018-02-14T08:48:15.920Z,1007.31
2018-02-14T08:49:15.922Z,1007.32
2018-02-14T08:50:15.972Z,1007.37
2018-02-14T08:51:16.023Z,1007.38
2018-02-14T08:52:16.075Z,1007.39
2018-02-14T08:53:16.124Z,1007.37
2018-02-14T08:54:16.174Z,1007.42
2018-02-14T08:55:16.224Z,1007.44
2018-02-14T08:56:16.275Z,1007.42
2018-02-14T08:57:16.325Z,1007.45
2018-02-14T08:58:16.375Z,1007.49
2018-02-14T08:59:17.302Z,1007.42
2018-02-14T09:00:16.477Z,1007.48
2018-02-14T09:01:16.529Z,1007.48
2018-02-14T09:02:16.730Z,1007.46
2018-02-14T09:03:16.660Z,1007.49
2018-02-14T09:04:16.682Z,1007.51
2018-02-14T09:05:16.734Z,1007.56
2018-02-14T09:06:16.785Z,1007.58
2018-02-14T09:07:16.833Z,1007.58
2018-02-14T09:08:16.886Z,1007.60
2018-02-14T09:09:16.937Z,1007.60
2018-02-14T09:10:16.986Z,1007.62
2018-02-14T09:11:17.038Z,1007.57
2018-02-14T09:12:17.092Z,1007.61
2018-02-14T09:13:17.141Z,1007.59
2018-02-14T09:14:17.214Z,1007.63
2018-02-14T09:15:17.242Z,1007.62
2018-02-14T09:16:17.524Z,1007.66
2018-02-14T09:17:17.878Z,1007.64
2018-02-14T09:18:17.396Z,1007.66
2018-02-14T09:19:17.447Z,1007.66
2018-02-14T09:20:17.501Z,1007.68
2018-02-14T09:21:18.221Z,1007.69
2018-02-14T09:22:17.606Z,1007.72
2018-02-14T09:23:17.654Z,1007.76
2018-02-14T09:24:17.709Z,1007.75
2018-02-14T09:25:17.757Z,1007.75
2018-02-14T09:26:17.809Z,1007.75
2018-02-14T09:27:17.880Z,1007.77
2018-02-14T09:28:17.912Z,1007.71
2018-02-14T09:29:18.537Z,1007.71
2018-02-14T09:30:22.178Z,1007.70
2018-02-14T09:31:18.089Z,1007.70
2018-02-14T09:32:18.119Z,1007.71
2018-02-14T09:33:18.170Z,1007.69
2018-02-14T09:34:18.222Z,1007.70
2018-02-14T09:35:18.274Z,1007.65
2018-02-14T09:36:18.326Z,1007.66
2018-02-14T09:37:18.377Z,1007.64
2018-02-14T09:38:18.440Z,1007.68
2018-02-14T09:39:18.481Z,1007.67
2018-02-14T09:40:18.532Z,1007.66
2018-02-14T09:41:18.585Z,1007.65
2018-02-14T09:42:18.637Z,1007.67
2018-02-14T09:43:18.689Z,1007.70
2018-02-14T09:44:18.741Z,1007.71
2018-02-14T09:45:19.155Z,1007.69
2018-02-14T09:46:18.874Z,1007.72
2018-02-14T09:47:18.905Z,1007.76
2018-02-14T09:48:18.949Z,1007.77
2018-02-14T09:49:19.027Z,1007.74
2018-02-14T09:50:19.053Z,1007.74
2018-02-14T09:51:19.107Z,1007.78
2018-02-14T09:52:19.160Z,1007.77
2018-02-14T09:53:19.211Z,1007.76
2018-02-14T09:54:19.264Z,1007.72
2018-02-14T09:55:19.317Z,1007.75
2018-02-14T09:56:19.369Z,1007.76
2018-02-14T09:57:19.429Z,1007.77
2018-02-14T09:58:19.473Z,1007.82
2018-02-14T09:59:19.527Z,1007.75
2018-02-14T10:00:19.580Z,1007.80
2018-02-14T10:01:19.640Z,1007.78
2018-02-14T10:02:19.686Z,1007.73
2018-02-14T10:03:19.742Z,1007.80
2018-02-14T10:04:19.790Z,1007.78
2018-02-14T10:05:19.844Z,1007.77
2018-02-14T10:06:19.894Z,1007.78
2018-02-14T10:07:19.947Z,1007.75
2018-02-14T10:08:20.004Z,1007.73
2018-02-14T10:09:20.204Z,1007.73
2018-02-14T10:10:20.119Z,1007.73
2018-02-14T10:11:20.159Z,1007.73
2018-02-14T10:12:20.212Z,1007.73
2018-02-14T10:13:20.266Z,1007.71
2018-02-14T10:14:20.319Z,1007.72
2018-02-14T10:15:20.379Z,1007.75
2018-02-14T10:16:20.424Z,1007.75
2018-02-14T10:17:20.478Z,1007.76
2018-02-14T10:18:21.299Z,1007.75
2018-02-14T10:19:20.583Z,1007.75
2018-02-14T10:20:20.638Z,1007.75
2018-02-14T10:21:20.691Z,1007.74
2018-02-14T10:22:20.745Z,1007.76
2018-02-14T10:23:20.798Z,1007.74
2018-02-14T10:24:20.851Z,1007.71
2018-02-14T10:25:20.903Z,1007.71
2018-02-14T10:26:20.963Z,1007.72
2018-02-14T10:27:21.209Z,1007.69
2018-02-14T10:28:21.063Z,1007.71
2018-02-14T10:29:21.118Z,1007.70
2018-02-14T10:30:21.169Z,1007.67
2018-02-14T10:31:21.223Z,1007.67
2018-02-14T10:32:21.276Z,1007.66
2018-02-14T10:33:21.349Z,1007.65
2018-02-14T10:34:21.585Z,1007.70
2018-02-14T10:35:21.468Z,1007.74
2018-02-14T10:36:21.491Z,1007.70
2018-02-14T10:37:21.544Z,1007.70
2018-02-14T10:38:21.598Z,1007.74
2018-02-14T10:39:21.651Z,1007.72
2018-02-14T10:40:21.737Z,1007.69
2018-02-14T10:41:21.758Z,1007.68
2018-02-14T10:42:21.815Z,1007.67
2018-02-14T10:43:21.864Z,1007.70
2018-02-14T10:44:21.921Z,1007.69
2018-02-14T10:45:21.974Z,1007.67
2018-02-14T10:46:22.028Z,1007.70
2018-02-14T10:47:22.086Z,1007.72
2018-02-14T10:48:22.516Z,1007.69
2018-02-14T10:49:22.497Z,1007.69
2018-02-14T10:50:22.241Z,1007.68
2018-02-14T10:51:22.295Z,1007.65
2018-02-14T10:52:22.349Z,1007.62
2018-02-14T10:53:22.403Z,1007.60
2018-02-14T10:54:22.460Z,1007.60
2018-02-14T10:55:22.509Z,1007.59
2018-02-14T10:56:22.564Z,1007.55
2018-02-14T10:57:22.618Z,1007.58
2018-02-14T10:58:22.672Z,1007.55
2018-02-14T10:59:22.726Z,1007.56
2018-02-14T11:00:22.779Z,1007.56
2018-02-14T11:01:22.836Z,1007.50
2018-02-14T11:02:22.888Z,1007.50
2018-02-14T11:03:22.943Z,1007.49
2018-02-14T11:04:22.996Z,1007.51
2018-02-14T11:05:23.670Z,1007.47
2018-02-14T11:06:23.106Z,1007.44
2018-02-14T11:07:23.161Z,1007.42
2018-02-14T11:08:23.214Z,1007.37
2018-02-14T11:09:23.269Z,1007.37
2018-02-14T11:10:23.323Z,1007.39
2018-02-14T11:11:23.378Z,1007.40
2018-02-14T11:12:23.432Z,1007.42
2018-02-14T11:13:23.487Z,1007.41
2018-02-14T11:14:23.542Z,1007.33
2018-02-14T11:15:23.600Z,1007.34
2018-02-14T11:16:24.273Z,1007.31
2018-02-14T11:17:23.706Z,1007.31
2018-02-14T11:18:23.760Z,1007.29
2018-02-14T11:19:23.815Z,1007.33
2018-02-14T11:20:23.879Z,1007.31
2018-02-14T11:21:23.930Z,1007.27
2018-02-14T11:22:24.050Z,1007.26
2018-02-14T11:23:24.035Z,1007.23
2018-02-14T11:24:24.090Z,1007.26
2018-02-14T11:25:24.148Z,1007.22
2018-02-14T11:26:24.200Z,1007.24
2018-02-14T11:27:24.257Z,1007.21
2018-02-14T11:28:24.312Z,1007.24
2018-02-14T11:29:24.367Z,1007.24
2018-02-14T11:30:24.421Z,1007.21
2018-02-14T11:31:24.485Z,1007.22
2018-02-14T11:32:24.537Z,1007.27
2018-02-14T11:33:24.588Z,1007.18
2018-02-14T11:34:24.893Z,1007.17
2018-02-14T11:35:24.699Z,1007.15
2018-02-14T11:36:24.798Z,1007.25
2018-02-14T11:37:24.810Z,1007.31
2018-02-14T11:38:24.867Z,1007.46
2018-02-14T11:39:24.925Z,1007.59
2018-02-14T11:40:24.979Z,1007.59
2018-02-14T11:41:25.035Z,1007.68
2018-02-14T11:42:25.090Z,1007.74
2018-02-14T11:43:25.147Z,1007.66
2018-02-14T11:44:25.208Z,1007.75
2018-02-14T11:45:25.262Z,1007.76
2018-02-14T11:46:25.319Z,1007.80
2018-02-14T11:47:25.376Z,1007.83
2018-02-14T11:48:25.435Z,1007.81
2018-02-14T11:49:25.493Z,1007.85
2018-02-14T11:50:25.551Z,1007.84
2018-02-14T11:51:25.611Z,1007.92
2018-02-14T11:52:25.876Z,1007.93
2018-02-14T11:53:25.733Z,1007.93
2018-02-14T11:54:25.789Z,1008.06
2018-02-14T11:55:25.847Z,1008.10
2018-02-14T11:56:25.908Z,1008.25
2018-02-14T11:57:25.970Z,1008.31
2018-02-14T11:58:26.028Z,1008.46
2018-02-14T11:59:26.087Z,1008.59
2018-02-14T12:00:26.148Z,1008.74
2018-02-14T12:01:26.210Z,1008.95
2018-02-14T12:02:26.269Z,1009.18
2018-02-14T12:03:26.868Z,1009.40
2018-02-14T12:04:26.392Z,1009.70
2018-02-14T12:05:26.452Z,1009.92
2018-02-14T12:06:26.512Z,1010.23